North Wilkesboro, North Carolina
Current Conditions -  °F | °C
As of 11:35 AM on Thursday 23 Oct 2014 (Local Time) from KUKF Reporting Station
Clear Clear  
Wind Chill: 59°   Ceiling: Unl
Heat Index: 59°   Visibility: 10mi
Dew Point: 37°   Wind: 10mph
Humidity: 45%   Direction: 320°NW
Pressure: 30.13"   Gusts: NA
Location:  36.17°N, 81.14°W
Report Text: KUKF 231535Z AUTO 32009KT 290V360 10SM CLR 15/03 A3013 RMK AO2
Loading
Personal Weather Stations






























Interactive Weather Map
Tropical Storm Tracking
New forecast layout! Learn more

10-Day Weather Forecast

Advertisements
Track Severe Weather on mobile